createdAt,value
2018-09-01T00:00:16.282Z,3.10
2018-09-01T00:01:16.320Z,2.80
2018-09-01T00:02:16.353Z,2.90
2018-09-01T00:03:16.398Z,3.00
2018-09-01T00:04:16.429Z,2.90
2018-09-01T00:05:16.477Z,2.80
2018-09-01T00:06:16.505Z,2.80
2018-09-01T00:07:16.540Z,2.80
2018-09-01T00:08:16.576Z,2.90
2018-09-01T00:09:16.612Z,3.10
2018-09-01T00:10:16.649Z,3.10
2018-09-01T00:11:16.769Z,3.00
2018-09-01T00:12:16.723Z,3.00
2018-09-01T00:13:16.760Z,3.10
2018-09-01T00:14:16.804Z,2.90
2018-09-01T00:15:16.841Z,2.90
2018-09-01T00:16:16.867Z,2.80
2018-09-01T00:17:16.906Z,3.30
2018-09-01T00:18:16.940Z,2.80
2018-09-01T00:19:16.977Z,3.00
2018-09-01T00:20:17.014Z,3.00
2018-09-01T00:21:17.050Z,2.90
2018-09-01T00:22:17.092Z,3.00
2018-09-01T00:23:17.125Z,3.00
2018-09-01T00:24:17.212Z,3.10
2018-09-01T00:25:17.197Z,2.90
2018-09-01T00:26:17.234Z,2.70
2018-09-01T00:27:17.269Z,2.70
2018-09-01T00:28:17.309Z,2.90
2018-09-01T00:29:17.344Z,2.70
2018-09-01T00:30:17.381Z,2.80
2018-09-01T00:31:17.424Z,2.90
2018-09-01T00:32:17.456Z,2.80
2018-09-01T00:33:17.491Z,2.70
2018-09-01T00:34:17.535Z,2.80
2018-09-01T00:35:17.564Z,2.80
2018-09-01T00:36:17.602Z,2.90
2018-09-01T00:37:17.660Z,3.10
2018-09-01T00:38:17.674Z,3.00
2018-09-01T00:39:17.709Z,3.00
2018-09-01T00:40:17.747Z,3.40
2018-09-01T00:41:17.785Z,3.80
2018-09-01T00:42:17.828Z,3.30
2018-09-01T00:43:17.858Z,3.40
2018-09-01T00:44:17.896Z,3.30
2018-09-01T00:45:17.939Z,3.30
2018-09-01T00:46:17.966Z,3.10
2018-09-01T00:47:18.004Z,3.40
2018-09-01T00:48:18.041Z,3.30
2018-09-01T00:49:18.076Z,3.30
2018-09-01T00:50:18.113Z,3.00
2018-09-01T00:51:18.151Z,3.10
2018-09-01T00:52:18.196Z,2.90
2018-09-01T00:53:18.234Z,3.10
2018-09-01T00:54:18.261Z,3.50
2018-09-01T00:55:18.294Z,3.40
2018-09-01T00:56:18.332Z,3.20
2018-09-01T00:57:18.368Z,3.10
2018-09-01T00:58:18.411Z,3.30
2018-09-01T00:59:18.561Z,3.30
2018-09-01T01:00:18.477Z,3.20
2018-09-01T01:01:18.515Z,3.20
2018-09-01T01:02:18.549Z,3.00
2018-09-01T01:03:18.587Z,3.30
2018-09-01T01:04:18.626Z,3.20
2018-09-01T01:05:18.660Z,3.10
2018-09-01T01:06:18.696Z,3.30
2018-09-01T01:07:18.733Z,3.20
2018-09-01T01:08:18.770Z,3.10
2018-09-01T01:09:18.807Z,2.90
2018-09-01T01:10:18.843Z,3.10
2018-09-01T01:11:18.879Z,3.30
2018-09-01T01:12:18.925Z,3.60
2018-09-01T01:13:18.951Z,3.30
2018-09-01T01:14:18.987Z,3.30
2018-09-01T01:15:19.029Z,3.20
2018-09-01T01:16:19.061Z,3.10
2018-09-01T01:17:19.103Z,3.10
2018-09-01T01:18:19.134Z,3.20
2018-09-01T01:19:19.170Z,3.20
2018-09-01T01:20:19.208Z,3.20
2018-09-01T01:21:19.247Z,3.40
2018-09-01T01:22:19.282Z,3.60
2018-09-01T01:23:19.317Z,3.60
2018-09-01T01:24:19.354Z,3.40
2018-09-01T01:25:19.398Z,3.60
2018-09-01T01:26:19.424Z,3.60
2018-09-01T01:27:19.462Z,3.40
2018-09-01T01:28:19.501Z,3.40
2018-09-01T01:29:19.535Z,3.30
2018-09-01T01:30:19.572Z,3.50
2018-09-01T01:31:19.611Z,3.30
2018-09-01T01:32:19.649Z,3.90
2018-09-01T01:33:19.680Z,4.40
2018-09-01T01:34:19.716Z,4.00
2018-09-01T01:35:19.755Z,3.60
2018-09-01T01:36:19.790Z,3.90
2018-09-01T01:37:19.827Z,4.00
2018-09-01T01:38:19.864Z,3.80
2018-09-01T01:39:19.899Z,3.60
2018-09-01T01:40:19.936Z,3.90
2018-09-01T01:41:19.977Z,3.80
2018-09-01T01:42:20.010Z,3.60
2018-09-01T01:43:20.046Z,4.00
2018-09-01T01:44:20.082Z,3.80
2018-09-01T01:45:20.126Z,3.70
2018-09-01T01:46:20.154Z,3.50
2018-09-01T01:47:20.191Z,3.70
2018-09-01T01:48:20.237Z,3.50
2018-09-01T01:49:20.264Z,3.60
2018-09-01T01:50:20.300Z,3.30
2018-09-01T01:51:20.340Z,3.90
2018-09-01T01:52:20.385Z,3.90
2018-09-01T01:53:20.409Z,3.50
2018-09-01T01:54:20.445Z,3.80
2018-09-01T01:55:20.482Z,3.70
2018-09-01T01:56:20.525Z,3.80
2018-09-01T01:57:20.553Z,3.30
2018-09-01T01:58:20.593Z,3.80
2018-09-01T01:59:20.630Z,4.10
2018-09-01T02:00:20.663Z,3.70
2018-09-01T02:01:20.699Z,3.80
2018-09-01T02:02:20.735Z,3.70
2018-09-01T02:03:20.772Z,4.00
2018-09-01T02:04:20.815Z,3.70
2018-09-01T02:05:20.845Z,3.80
2018-09-01T02:06:20.881Z,3.90
2018-09-01T02:07:20.915Z,3.90
2018-09-01T02:08:20.954Z,4.10
2018-09-01T02:09:20.991Z,3.90
2018-09-01T02:10:21.026Z,3.70
2018-09-01T02:11:21.062Z,4.20
2018-09-01T02:12:21.097Z,3.80
2018-09-01T02:13:21.134Z,4.00
2018-09-01T02:14:21.170Z,3.80
2018-09-01T02:15:21.207Z,4.00
2018-09-01T02:16:21.245Z,3.70
2018-09-01T02:17:21.279Z,3.80
2018-09-01T02:18:21.317Z,3.10
2018-09-01T02:19:21.350Z,3.70
2018-09-01T02:20:21.388Z,4.00
2018-09-01T02:21:21.429Z,3.80
2018-09-01T02:22:21.459Z,3.90
2018-09-01T02:23:21.502Z,3.80
2018-09-01T02:24:21.532Z,3.90
2018-09-01T02:25:21.570Z,3.80
2018-09-01T02:26:21.605Z,4.10
2018-09-01T02:27:21.641Z,3.70
2018-09-01T02:28:21.677Z,3.90
2018-09-01T02:29:21.715Z,4.10
2018-09-01T02:30:21.749Z,4.10
2018-09-01T02:31:21.785Z,4.20
2018-09-01T02:32:21.822Z,4.20
2018-09-01T02:33:21.857Z,4.20
2018-09-01T02:34:21.895Z,4.10
2018-09-01T02:35:21.933Z,4.10
2018-09-01T02:36:21.972Z,4.40
2018-09-01T02:37:22.010Z,4.40
2018-09-01T02:38:22.039Z,4.10
2018-09-01T02:39:22.076Z,4.20
2018-09-01T02:40:22.113Z,3.80
2018-09-01T02:41:22.150Z,3.60
2018-09-01T02:42:22.184Z,4.10
2018-09-01T02:43:22.221Z,4.00
2018-09-01T02:44:22.256Z,3.90
2018-09-01T02:45:22.292Z,3.80
2018-09-01T02:46:22.328Z,4.00
2018-09-01T02:47:22.363Z,3.50
2018-09-01T02:48:22.402Z,3.70
2018-09-01T02:49:22.438Z,3.60
2018-09-01T02:50:22.474Z,3.70
2018-09-01T02:51:22.514Z,3.70
2018-09-01T02:52:22.550Z,3.40
2018-09-01T02:53:22.591Z,3.20
2018-09-01T02:54:22.619Z,3.40
2018-09-01T02:55:22.655Z,3.10
2018-09-01T02:56:22.690Z,3.50
2018-09-01T02:57:22.730Z,3.30
2018-09-01T02:58:22.761Z,3.40
2018-09-01T02:59:22.804Z,3.80
2018-09-01T03:00:22.834Z,4.40
2018-09-01T03:01:22.877Z,4.20
2018-09-01T03:02:22.907Z,4.20
2018-09-01T03:03:22.944Z,3.60
2018-09-01T03:04:22.977Z,4.00
2018-09-01T03:05:23.014Z,4.00
2018-09-01T03:06:23.052Z,4.10
2018-09-01T03:07:23.086Z,3.90
2018-09-01T03:08:23.124Z,3.70
2018-09-01T03:09:23.160Z,4.00
2018-09-01T03:10:23.194Z,4.30
2018-09-01T03:11:23.231Z,4.10
2018-09-01T03:12:23.267Z,4.00
2018-09-01T03:13:23.304Z,4.30
2018-09-01T03:14:23.340Z,4.30
2018-09-01T03:15:23.376Z,4.00
2018-09-01T03:16:23.422Z,4.50
2018-09-01T03:17:23.450Z,4.50
2018-09-01T03:18:23.485Z,4.30
2018-09-01T03:19:23.622Z,4.60
2018-09-01T03:20:23.557Z,4.20
2018-09-01T03:21:23.593Z,4.30
2018-09-01T03:22:23.631Z,4.20
2018-09-01T03:23:23.665Z,4.30
2018-09-01T03:24:23.702Z,4.20
2018-09-01T03:25:23.740Z,4.30
2018-09-01T03:26:23.925Z,4.30
2018-09-01T03:27:23.810Z,4.20
2018-09-01T03:28:23.860Z,4.10
2018-09-01T03:29:23.883Z,3.90
2018-09-01T03:30:23.919Z,4.20
2018-09-01T03:31:23.956Z,4.60
2018-09-01T03:32:23.992Z,4.80
2018-09-01T03:33:24.032Z,4.30
2018-09-01T03:34:24.061Z,4.20
2018-09-01T03:35:24.098Z,4.20
2018-09-01T03:36:24.135Z,4.50
2018-09-01T03:37:24.186Z,4.30
2018-09-01T03:38:24.206Z,4.50
2018-09-01T03:39:24.253Z,4.00
2018-09-01T03:40:24.278Z,4.10
2018-09-01T03:41:24.315Z,4.80
2018-09-01T03:42:24.349Z,4.70
2018-09-01T03:43:24.386Z,4.80
2018-09-01T03:44:24.423Z,4.60
2018-09-01T03:45:24.456Z,4.40
2018-09-01T03:46:24.505Z,4.80
2018-09-01T03:47:24.531Z,5.00
2018-09-01T03:48:24.576Z,5.00
2018-09-01T03:49:24.611Z,4.70
2018-09-01T03:50:24.640Z,4.30
2018-09-01T03:51:24.673Z,4.50
2018-09-01T03:52:24.710Z,4.40
2018-09-01T03:53:24.748Z,4.70
2018-09-01T03:54:24.783Z,4.10
2018-09-01T03:55:24.827Z,4.20
2018-09-01T03:56:24.854Z,4.40
2018-09-01T03:57:24.898Z,4.60
2018-09-01T03:58:24.942Z,4.60
2018-09-01T03:59:24.962Z,4.70
2018-09-01T04:00:24.999Z,4.80
2018-09-01T04:01:25.041Z,4.30
2018-09-01T04:02:25.072Z,4.80
2018-09-01T04:03:25.107Z,4.70
2018-09-01T04:04:25.151Z,4.90
2018-09-01T04:05:25.184Z,4.80
2018-09-01T04:06:25.214Z,5.00
2018-09-01T04:07:25.251Z,4.80
2018-09-01T04:08:25.289Z,4.20
2018-09-01T04:09:25.324Z,4.70
2018-09-01T04:10:25.360Z,4.90
2018-09-01T04:11:25.393Z,4.30
2018-09-01T04:12:25.431Z,4.40
2018-09-01T04:13:25.466Z,4.40
2018-09-01T04:14:25.505Z,4.40
2018-09-01T04:15:25.541Z,4.50
2018-09-01T04:16:25.573Z,4.60
2018-09-01T04:17:25.611Z,4.70
2018-09-01T04:18:25.649Z,5.60
2018-09-01T04:19:25.684Z,5.40
2018-09-01T04:20:25.718Z,5.20
2018-09-01T04:21:25.755Z,4.70
2018-09-01T04:22:25.793Z,4.50
2018-09-01T04:23:25.826Z,4.50
2018-09-01T04:24:25.870Z,4.60
2018-09-01T04:25:25.899Z,4.60
2018-09-01T04:26:25.934Z,4.40
2018-09-01T04:27:25.971Z,5.30
2018-09-01T04:28:26.006Z,4.60
2018-09-01T04:29:26.045Z,4.90
2018-09-01T04:30:26.080Z,5.00
2018-09-01T04:31:26.114Z,5.00
2018-09-01T04:32:26.151Z,4.90
2018-09-01T04:33:26.186Z,5.10
2018-09-01T04:34:26.221Z,4.80
2018-09-01T04:35:26.361Z,5.20
2018-09-01T04:36:26.295Z,4.20
2018-09-01T04:37:26.331Z,4.40
2018-09-01T04:38:26.367Z,4.10
2018-09-01T04:39:26.400Z,4.30
2018-09-01T04:40:26.443Z,4.80
2018-09-01T04:41:26.474Z,4.60
2018-09-01T04:42:26.509Z,4.70
2018-09-01T04:43:26.549Z,4.80
2018-09-01T04:44:26.581Z,4.60
2018-09-01T04:45:26.617Z,5.40
2018-09-01T04:46:26.653Z,5.10
2018-09-01T04:47:26.688Z,5.00
2018-09-01T04:48:26.736Z,4.80
2018-09-01T04:49:26.761Z,5.30
2018-09-01T04:50:26.796Z,4.90
2018-09-01T04:51:26.835Z,4.90
2018-09-01T04:52:26.868Z,5.00
2018-09-01T04:53:26.907Z,4.70
2018-09-01T04:54:26.944Z,4.50
2018-09-01T04:55:26.981Z,4.60
2018-09-01T04:56:27.015Z,4.80
2018-09-01T04:57:27.050Z,4.80
2018-09-01T04:58:27.083Z,4.50
2018-09-01T04:59:27.125Z,4.60
2018-09-01T05:00:27.156Z,4.20
2018-09-01T05:01:27.284Z,4.30
2018-09-01T05:02:27.232Z,4.10
2018-09-01T05:03:27.263Z,4.10
2018-09-01T05:04:27.300Z,3.80
2018-09-01T05:05:27.335Z,4.30
2018-09-01T05:06:27.371Z,4.30
2018-09-01T05:07:27.408Z,4.10
2018-09-01T05:08:27.444Z,4.00
2018-09-01T05:09:27.481Z,4.30
2018-09-01T05:10:27.524Z,4.10
2018-09-01T05:11:27.552Z,4.30
2018-09-01T05:12:27.588Z,4.20
2018-09-01T05:13:27.625Z,4.40
2018-09-01T05:14:27.660Z,4.00
2018-09-01T05:15:27.697Z,4.40
2018-09-01T05:16:27.730Z,3.90
2018-09-01T05:17:27.769Z,4.70
2018-09-01T05:18:27.803Z,3.80
2018-09-01T05:19:27.837Z,5.00
2018-09-01T05:20:27.874Z,4.40
2018-09-01T05:21:27.912Z,4.60
2018-09-01T05:22:27.947Z,4.90
2018-09-01T05:23:27.984Z,5.00
2018-09-01T05:24:28.019Z,4.50
2018-09-01T05:25:28.054Z,5.00
2018-09-01T05:26:28.091Z,5.00
2018-09-01T05:27:28.125Z,4.70
2018-09-01T05:28:28.165Z,4.20
2018-09-01T05:29:28.199Z,4.60
2018-09-01T05:30:28.235Z,4.20
2018-09-01T05:31:28.270Z,4.60
2018-09-01T05:32:28.314Z,4.10
2018-09-01T05:33:28.344Z,4.60
2018-09-01T05:34:28.377Z,4.70
2018-09-01T05:35:28.415Z,5.00
2018-09-01T05:36:28.499Z,4.90
2018-09-01T05:37:28.486Z,5.00
2018-09-01T05:38:28.520Z,4.80
2018-09-01T05:39:28.559Z,4.30
2018-09-01T05:40:28.594Z,4.60
2018-09-01T05:41:28.639Z,4.70
2018-09-01T05:42:28.668Z,4.40
2018-09-01T05:43:28.703Z,4.50
2018-09-01T05:44:28.739Z,4.40
2018-09-01T05:45:28.782Z,4.70
2018-09-01T05:46:28.808Z,4.60
2018-09-01T05:47:28.845Z,4.30
2018-09-01T05:48:28.882Z,4.50
2018-09-01T05:49:28.919Z,4.70
2018-09-01T05:50:28.960Z,4.30
2018-09-01T05:51:28.990Z,3.90
2018-09-01T05:52:29.028Z,4.00
2018-09-01T05:53:29.064Z,4.20
2018-09-01T05:54:29.096Z,4.30
2018-09-01T05:55:29.134Z,4.10
2018-09-01T05:56:29.169Z,4.30
2018-09-01T05:57:29.209Z,4.30
2018-09-01T05:58:29.250Z,4.10
2018-09-01T05:59:29.277Z,4.00
2018-09-01T06:00:29.330Z,4.20
2018-09-01T06:01:29.668Z,4.30
2018-09-01T06:02:29.395Z,4.10
2018-09-01T06:03:29.421Z,3.90
2018-09-01T06:04:29.463Z,4.10
2018-09-01T06:05:29.493Z,4.20
2018-09-01T06:06:29.537Z,4.10
2018-09-01T06:07:29.586Z,3.70
2018-09-01T06:08:29.603Z,4.10
2018-09-01T06:09:29.649Z,4.30
2018-09-01T06:10:29.674Z,3.90
2018-09-01T06:11:29.767Z,4.10
2018-09-01T06:12:29.748Z,4.00
2018-09-01T06:13:29.791Z,4.00
2018-09-01T06:14:29.817Z,3.60
2018-09-01T06:15:29.855Z,4.10
2018-09-01T06:16:29.898Z,4.20
2018-09-01T06:17:29.962Z,3.80
2018-09-01T06:18:29.971Z,4.10
2018-09-01T06:19:30.003Z,4.10
2018-09-01T06:20:30.042Z,3.80
2018-09-01T06:21:30.084Z,4.10
2018-09-01T06:22:30.111Z,3.60
2018-09-01T06:23:30.144Z,4.00
2018-09-01T06:24:30.183Z,3.80
2018-09-01T06:25:30.218Z,3.80
2018-09-01T06:26:30.260Z,3.90
2018-09-01T06:27:30.290Z,3.90
2018-09-01T06:28:30.334Z,3.80
2018-09-01T06:29:30.364Z,3.80
2018-09-01T06:30:30.396Z,4.10
2018-09-01T06:31:30.442Z,4.50
2018-09-01T06:32:30.472Z,4.00
2018-09-01T06:33:30.522Z,4.40
2018-09-01T06:34:30.549Z,4.30
2018-09-01T06:35:30.596Z,4.10
2018-09-01T06:36:30.618Z,4.50
2018-09-01T06:37:30.715Z,4.40
2018-09-01T06:38:30.690Z,4.50
2018-09-01T06:39:30.728Z,4.40
2018-09-01T06:40:30.767Z,4.40
2018-09-01T06:41:30.810Z,4.50
2018-09-01T06:42:30.838Z,4.50
2018-09-01T06:43:30.876Z,4.70
2018-09-01T06:44:30.910Z,4.70
2018-09-01T06:45:30.955Z,4.40
2018-09-01T06:46:30.983Z,4.30
2018-09-01T06:47:31.134Z,4.10
2018-09-01T06:48:31.061Z,4.50
2018-09-01T06:49:31.094Z,4.60
2018-09-01T06:50:31.135Z,4.20
2018-09-01T06:51:31.225Z,4.40
2018-09-01T06:52:31.204Z,4.20
2018-09-01T06:53:31.240Z,4.30
2018-09-01T06:54:31.274Z,4.80
2018-09-01T06:55:31.321Z,4.10
2018-09-01T06:56:31.356Z,4.80
2018-09-01T06:57:31.388Z,4.40
2018-09-01T06:58:31.445Z,4.40
2018-09-01T06:59:31.462Z,4.90
2018-09-01T07:00:31.495Z,4.80
2018-09-01T07:01:31.532Z,4.80
2018-09-01T07:02:31.569Z,4.40
2018-09-01T07:03:31.608Z,4.30
2018-09-01T07:04:31.642Z,4.50
2018-09-01T07:05:31.679Z,4.40
2018-09-01T07:06:31.717Z,4.40
2018-09-01T07:07:31.754Z,4.30
2018-09-01T07:08:31.800Z,5.00
2018-09-01T07:09:31.831Z,4.60
2018-09-01T07:10:31.869Z,4.70
2018-09-01T07:11:31.899Z,4.60
2018-09-01T07:12:31.947Z,4.40
2018-09-01T07:13:31.976Z,4.30
2018-09-01T07:14:32.020Z,4.90
2018-09-01T07:15:32.047Z,4.70
2018-09-01T07:16:32.084Z,4.40
2018-09-01T07:17:32.121Z,4.70
2018-09-01T07:18:32.157Z,4.70
2018-09-01T07:19:32.195Z,4.60
2018-09-01T07:20:32.241Z,4.70
2018-09-01T07:21:32.272Z,4.00
2018-09-01T07:22:32.306Z,4.80
2018-09-01T07:23:32.342Z,4.80
2018-09-01T07:24:32.378Z,4.20
2018-09-01T07:25:32.417Z,4.40
2018-09-01T07:26:32.454Z,4.60
2018-09-01T07:27:32.489Z,4.20
2018-09-01T07:28:32.532Z,4.20
2018-09-01T07:29:32.568Z,4.80
2018-09-01T07:30:32.654Z,4.50
2018-09-01T07:31:33.065Z,4.60
2018-09-01T07:32:32.675Z,4.50
2018-09-01T07:33:32.717Z,4.50
2018-09-01T07:34:32.747Z,3.90
2018-09-01T07:35:32.785Z,4.30
2018-09-01T07:36:32.823Z,4.20
2018-09-01T07:37:32.862Z,4.70
2018-09-01T07:38:32.896Z,4.70
2018-09-01T07:39:32.933Z,4.50
2018-09-01T07:40:32.969Z,4.00
2018-09-01T07:41:33.010Z,4.40
2018-09-01T07:42:33.048Z,4.40
2018-09-01T07:43:33.091Z,4.50
2018-09-01T07:44:33.119Z,4.10
2018-09-01T07:45:33.163Z,4.40
2018-09-01T07:46:33.194Z,4.10
2018-09-01T07:47:33.232Z,4.50
2018-09-01T07:48:33.269Z,4.30
2018-09-01T07:49:33.316Z,4.60
2018-09-01T07:50:33.342Z,4.20
2018-09-01T07:51:33.381Z,4.10
2018-09-01T07:52:33.429Z,4.30
2018-09-01T07:53:33.460Z,4.40
2018-09-01T07:54:33.497Z,4.40
2018-09-01T07:55:33.532Z,4.50
2018-09-01T07:56:33.567Z,4.40
2018-09-01T07:57:33.605Z,4.10
2018-09-01T07:58:33.646Z,4.10
2018-09-01T07:59:33.679Z,5.00
2018-09-01T08:00:33.719Z,4.50
2018-09-01T08:01:33.754Z,4.50
2018-09-01T08:02:33.790Z,4.00
2018-09-01T08:03:33.829Z,4.50
2018-09-01T08:04:33.866Z,4.20
2018-09-01T08:05:33.930Z,4.20
2018-09-01T08:06:33.942Z,4.60
2018-09-01T08:07:33.995Z,4.60
2018-09-01T08:08:34.022Z,4.30
2018-09-01T08:09:34.054Z,4.40
2018-09-01T08:10:34.094Z,4.50
2018-09-01T08:11:34.129Z,4.30
2018-09-01T08:12:34.167Z,4.20
2018-09-01T08:13:34.209Z,4.30
2018-09-01T08:14:34.331Z,4.20
2018-09-01T08:15:34.288Z,4.00
2018-09-01T08:16:34.322Z,4.50
2018-09-01T08:17:34.438Z,4.90
2018-09-01T08:18:34.447Z,4.10
2018-09-01T08:19:34.692Z,4.00
2018-09-01T08:20:34.470Z,4.00
2018-09-01T08:21:34.629Z,3.80
2018-09-01T08:22:34.554Z,4.20
2018-09-01T08:23:34.583Z,3.80
2018-09-01T08:24:34.621Z,4.00
2018-09-01T08:25:34.659Z,4.00
2018-09-01T08:26:34.696Z,4.50
2018-09-01T08:27:34.741Z,4.30
2018-09-01T08:28:34.777Z,3.80
2018-09-01T08:29:34.819Z,3.90
2018-09-01T08:30:34.852Z,4.10
2018-09-01T08:31:34.902Z,4.00
2018-09-01T08:32:34.927Z,4.20
2018-09-01T08:33:35.009Z,4.30
2018-09-01T08:34:35.003Z,4.00
2018-09-01T08:35:35.048Z,4.40
2018-09-01T08:36:35.085Z,3.70
2018-09-01T08:37:35.123Z,4.20
2018-09-01T08:38:35.151Z,4.00
2018-09-01T08:39:35.193Z,4.00
2018-09-01T08:40:35.232Z,3.90
2018-09-01T08:41:35.266Z,3.80
2018-09-01T08:42:35.320Z,4.30
2018-09-01T08:43:35.352Z,3.90
2018-09-01T08:44:35.381Z,3.70
2018-09-01T08:45:35.424Z,3.70
2018-09-01T08:46:35.456Z,4.10
2018-09-01T08:47:35.498Z,3.60
2018-09-01T08:48:35.535Z,3.80
2018-09-01T08:49:35.572Z,3.40
2018-09-01T08:50:35.614Z,3.70
2018-09-01T08:51:35.649Z,3.50
2018-09-01T08:52:35.687Z,3.90
2018-09-01T08:53:35.732Z,4.00
2018-09-01T08:54:35.766Z,3.80
2018-09-01T08:55:35.805Z,3.50
2018-09-01T08:56:35.888Z,3.90
2018-09-01T08:57:35.879Z,4.20
2018-09-01T08:58:35.920Z,3.30
2018-09-01T08:59:35.956Z,3.90
2018-09-01T09:00:35.994Z,3.70
2018-09-01T09:01:36.033Z,3.60
2018-09-01T09:02:36.073Z,3.60
2018-09-01T09:03:36.132Z,3.50
2018-09-01T09:04:36.148Z,3.40
2018-09-01T09:05:36.229Z,3.50
2018-09-01T09:06:36.235Z,4.10
2018-09-01T09:07:36.262Z,3.70
2018-09-01T09:08:36.312Z,3.30
2018-09-01T09:09:36.362Z,3.50
2018-09-01T09:10:36.383Z,2.90
2018-09-01T09:11:36.450Z,2.90
2018-09-01T09:12:36.460Z,3.10
2018-09-01T09:13:36.494Z,3.20
2018-09-01T09:14:36.583Z,2.80
2018-09-01T09:15:36.578Z,2.80
2018-09-01T09:16:36.619Z,3.10
2018-09-01T09:17:36.660Z,3.30
2018-09-01T09:18:36.792Z,3.40
2018-09-01T09:19:36.733Z,2.70
2018-09-01T09:20:36.765Z,2.60
2018-09-01T09:21:36.805Z,2.60
2018-09-01T09:22:36.850Z,3.00
2018-09-01T09:23:36.882Z,2.50
2018-09-01T09:24:36.921Z,2.90
2018-09-01T09:25:36.960Z,2.90
2018-09-01T09:26:36.999Z,2.70
2018-09-01T09:27:37.041Z,2.70
2018-09-01T09:28:37.093Z,2.80
2018-09-01T09:29:37.120Z,2.80
2018-09-01T09:30:37.155Z,2.90
2018-09-01T09:31:37.192Z,2.80
2018-09-01T09:32:37.237Z,2.70
2018-09-01T09:33:37.275Z,2.80
2018-09-01T09:34:37.349Z,2.50
2018-09-01T09:35:37.358Z,3.00
2018-09-01T09:36:37.387Z,2.60
2018-09-01T09:37:37.435Z,2.90
2018-09-01T09:38:37.476Z,2.70
2018-09-01T09:39:37.509Z,3.00
2018-09-01T09:40:37.555Z,2.80
2018-09-01T09:41:37.586Z,2.60
2018-09-01T09:42:37.623Z,2.50
2018-09-01T09:43:37.663Z,2.70
2018-09-01T09:44:37.704Z,2.50
2018-09-01T09:45:37.744Z,2.40
2018-09-01T09:46:37.784Z,2.40
2018-09-01T09:47:37.824Z,2.50
2018-09-01T09:48:37.866Z,2.60
2018-09-01T09:49:37.901Z,2.40
2018-09-01T09:50:38.038Z,2.30
2018-09-01T09:51:37.991Z,2.50
2018-09-01T09:52:38.031Z,2.70
2018-09-01T09:53:38.060Z,2.30
2018-09-01T09:54:38.099Z,2.50
2018-09-01T09:55:38.139Z,2.50
2018-09-01T09:56:38.181Z,2.60
2018-09-01T09:57:38.222Z,3.10
2018-09-01T09:58:38.260Z,3.00
2018-09-01T09:59:38.305Z,2.40
2018-09-01T10:00:38.351Z,2.40
2018-09-01T10:01:38.395Z,2.50
2018-09-01T10:02:38.426Z,1.90
2018-09-01T10:03:38.459Z,2.10
2018-09-01T10:04:38.503Z,2.10
2018-09-01T10:05:38.588Z,1.80
2018-09-01T10:06:38.582Z,2.00
2018-09-01T10:07:38.673Z,2.10
2018-09-01T10:08:38.661Z,1.80
2018-09-01T10:09:38.707Z,2.10
2018-09-01T10:10:38.748Z,1.90
2018-09-01T10:11:38.781Z,1.80
2018-09-01T10:12:38.825Z,1.80
2018-09-01T10:13:38.865Z,1.60
2018-09-01T10:14:38.902Z,1.60
2018-09-01T10:15:38.963Z,1.60
2018-09-01T10:16:39.155Z,1.80
2018-09-01T10:17:39.036Z,1.70
2018-09-01T10:18:39.062Z,1.70
2018-09-01T10:19:39.104Z,1.80
2018-09-01T10:20:39.151Z,1.70
2018-09-01T10:21:39.182Z,1.80
2018-09-01T10:22:39.223Z,1.80
2018-09-01T10:23:39.271Z,1.70
2018-09-01T10:24:39.316Z,1.40
2018-09-01T10:25:39.343Z,1.50
2018-09-01T10:26:39.434Z,1.50
2018-09-01T10:27:39.443Z,1.70
2018-09-01T10:28:39.475Z,1.70
2018-09-01T10:29:39.511Z,1.60
2018-09-01T10:30:39.545Z,1.60
2018-09-01T10:31:39.585Z,1.50
2018-09-01T10:32:39.632Z,1.50
2018-09-01T10:33:39.678Z,1.50
2018-09-01T10:34:39.724Z,1.50
2018-09-01T10:35:39.750Z,1.40
2018-09-01T10:36:39.787Z,1.60
2018-09-01T10:37:39.828Z,1.70
2018-09-01T10:38:39.882Z,1.50
2018-09-01T10:39:39.923Z,1.40
2018-09-01T10:40:40.105Z,1.50
2018-09-01T10:41:39.993Z,1.50
2018-09-01T10:42:40.031Z,1.80
2018-09-01T10:43:40.074Z,1.60
2018-09-01T10:44:40.113Z,1.50
2018-09-01T10:45:40.153Z,1.70
2018-09-01T10:46:40.196Z,1.50
2018-09-01T10:47:40.235Z,1.50
2018-09-01T10:48:40.275Z,1.70
2018-09-01T10:49:40.316Z,1.60
2018-09-01T10:50:40.362Z,1.80
2018-09-01T10:51:40.399Z,1.70
2018-09-01T10:52:40.440Z,1.70
2018-09-01T10:53:40.484Z,1.70
2018-09-01T10:54:40.521Z,1.70
2018-09-01T10:55:40.563Z,1.50
2018-09-01T10:56:40.616Z,1.60
2018-09-01T10:57:40.643Z,1.70
2018-09-01T10:58:40.687Z,1.60
2018-09-01T10:59:40.920Z,1.90
2018-09-01T11:00:40.765Z,1.60
2018-09-01T11:01:40.812Z,1.50
2018-09-01T11:02:40.847Z,1.70
2018-09-01T11:03:40.946Z,1.70
2018-09-01T11:04:40.947Z,1.50
2018-09-01T11:05:41.033Z,1.60
2018-09-01T11:06:41.010Z,1.90
2018-09-01T11:07:41.059Z,1.70
2018-09-01T11:08:41.090Z,1.60
2018-09-01T11:09:41.130Z,1.60
2018-09-01T11:10:41.170Z,1.50
2018-09-01T11:11:41.211Z,1.70
2018-09-01T11:12:41.253Z,1.50
2018-09-01T11:13:41.295Z,1.60
2018-09-01T11:14:41.340Z,1.60
2018-09-01T11:15:41.445Z,1.80
2018-09-01T11:16:41.422Z,1.70
2018-09-01T11:17:41.458Z,1.70
2018-09-01T11:18:41.511Z,1.70
2018-09-01T11:19:41.538Z,1.60
2018-09-01T11:20:41.757Z,1.90
2018-09-01T11:21:41.628Z,1.70
2018-09-01T11:22:41.655Z,1.70
2018-09-01T11:23:41.697Z,1.80
2018-09-01T11:24:41.742Z,1.50
2018-09-01T11:25:41.779Z,1.60
2018-09-01T11:26:41.819Z,1.50
2018-09-01T11:27:41.963Z,1.80
2018-09-01T11:28:41.901Z,1.80
2018-09-01T11:29:41.949Z,1.70
2018-09-01T11:30:41.985Z,1.70
2018-09-01T11:31:42.042Z,1.60
2018-09-01T11:32:42.069Z,1.80
2018-09-01T11:33:42.104Z,1.30
2018-09-01T11:34:42.149Z,1.90
2018-09-01T11:35:42.185Z,1.70
2018-09-01T11:36:42.286Z,1.70
2018-09-01T11:37:42.265Z,1.30
2018-09-01T11:38:42.344Z,1.80
2018-09-01T11:39:42.344Z,1.80
2018-09-01T11:40:42.395Z,1.90
2018-09-01T11:41:42.436Z,1.50
2018-09-01T11:42:42.566Z,1.60
2018-09-01T11:43:42.507Z,1.80
2018-09-01T11:44:42.548Z,1.80
2018-09-01T11:45:42.589Z,1.70
2018-09-01T11:46:42.630Z,1.80
2018-09-01T11:47:42.671Z,1.80
2018-09-01T11:48:42.724Z,1.50
2018-09-01T11:49:42.756Z,1.80
2018-09-01T11:50:42.794Z,1.80
2018-09-01T11:51:42.833Z,1.80
2018-09-01T11:52:42.874Z,1.60
2018-09-01T11:53:43.014Z,1.70
2018-09-01T11:54:42.952Z,1.60
2018-09-01T11:55:43.009Z,1.70
2018-09-01T11:56:43.041Z,1.70
2018-09-01T11:57:43.076Z,1.90
2018-09-01T11:58:43.226Z,2.10
2018-09-01T11:59:43.157Z,1.80
2018-09-01T12:00:43.200Z,1.90
2018-09-01T12:01:43.242Z,1.60
2018-09-01T12:02:43.280Z,1.70
2018-09-01T12:03:43.318Z,1.90
2018-09-01T12:04:43.368Z,1.80
2018-09-01T12:05:43.401Z,1.50
2018-09-01T12:06:43.442Z,1.80
2018-09-01T12:07:43.480Z,1.80
2018-09-01T12:08:43.526Z,1.60
2018-09-01T12:09:43.568Z,1.60
2018-09-01T12:10:43.605Z,1.50
2018-09-01T12:11:43.651Z,1.80
2018-09-01T12:12:43.683Z,1.60
2018-09-01T12:13:43.729Z,1.80
2018-09-01T12:14:43.761Z,1.60
2018-09-01T12:15:43.819Z,1.40
2018-09-01T12:16:43.845Z,1.50
2018-09-01T12:17:43.886Z,1.30
2018-09-01T12:18:43.929Z,1.50
2018-09-01T12:19:43.964Z,1.60
2018-09-01T12:20:44.013Z,1.80
2018-09-01T12:21:44.049Z,1.60
2018-09-01T12:22:44.090Z,1.90
2018-09-01T12:23:44.126Z,1.70
2018-09-01T12:24:44.169Z,1.60
2018-09-01T12:25:44.210Z,1.70
2018-09-01T12:26:44.250Z,1.50
2018-09-01T12:27:44.290Z,1.60
2018-09-01T12:28:44.342Z,1.60
2018-09-01T12:29:44.372Z,1.50
2018-09-01T12:30:44.423Z,1.70
2018-09-01T12:31:44.454Z,1.50
2018-09-01T12:32:44.503Z,1.60
2018-09-01T12:33:44.534Z,1.70
2018-09-01T12:34:44.575Z,1.80
2018-09-01T12:35:44.630Z,1.60
2018-09-01T12:36:44.675Z,1.40
2018-09-01T12:37:44.696Z,1.40
2018-09-01T12:38:44.744Z,1.70
2018-09-01T12:39:44.785Z,1.80
2018-09-01T12:40:44.818Z,1.70
2018-09-01T12:41:44.859Z,1.60
2018-09-01T12:42:44.906Z,1.60
2018-09-01T12:43:45.043Z,1.60
2018-09-01T12:44:44.982Z,1.80
2018-09-01T12:45:45.022Z,1.60
2018-09-01T12:46:45.062Z,1.70
2018-09-01T12:47:45.109Z,1.50
2018-09-01T12:48:45.149Z,1.80
2018-09-01T12:49:45.183Z,1.80
2018-09-01T12:50:45.235Z,1.60
2018-09-01T12:51:45.264Z,1.40
2018-09-01T12:52:45.315Z,1.60
2018-09-01T12:53:45.346Z,1.60
2018-09-01T12:54:45.439Z,1.60
2018-09-01T12:55:45.427Z,1.50
2018-09-01T12:56:45.468Z,1.60
2018-09-01T12:57:45.512Z,1.90
2018-09-01T12:58:45.547Z,1.60
2018-09-01T12:59:45.588Z,1.90
2018-09-01T13:00:45.696Z,1.70
2018-09-01T13:01:45.670Z,1.70
2018-09-01T13:02:45.712Z,1.80
2018-09-01T13:03:45.750Z,1.80
2018-09-01T13:04:45.791Z,2.00
2018-09-01T13:05:45.833Z,1.50
2018-09-01T13:06:45.873Z,2.00
2018-09-01T13:07:45.912Z,1.70
2018-09-01T13:08:45.961Z,1.90
2018-09-01T13:09:46.080Z,1.80
2018-09-01T13:10:46.038Z,1.80
2018-09-01T13:11:46.077Z,2.00
2018-09-01T13:12:46.124Z,1.80
2018-09-01T13:13:46.159Z,1.80
2018-09-01T13:14:46.201Z,1.80
2018-09-01T13:15:46.241Z,1.90
2018-09-01T13:16:46.279Z,1.90
2018-09-01T13:17:46.326Z,1.70
2018-09-01T13:18:46.365Z,1.70